Time,TemperatureF,DewpointF,PressureIn,WindDirection,WindDirectionDegrees,WindSpeedMPH,WindSpeedGustMPH,Humidity,HourlyPrecipIn,Conditions,Clouds,dailyrainin,SoftwareType,DateUTC
2013-03-07 00:00:00,38.2,31.3,30.19,ESE,102,0.0,5.0,76,0.00,,---,0.00,VWS V14.01,2013-03-07 06:00:00,
2013-03-07 00:01:00,39.9,32.0,30.22,ENE,63,0.0,0.0,73,0.00,,---,0.00,VWS V14.01,2013-03-07 06:01:00,
2013-03-07 00:06:00,39.6,32.0,30.22,ENE,63,0.0,0.0,74,0.00,,---,0.00,VWS V14.01,2013-03-07 06:06:00,
2013-03-07 00:11:00,39.2,31.6,30.22,ENE,63,0.0,0.0,74,0.00,,---,0.00,VWS V14.01,2013-03-07 06:11:00,
2013-03-07 00:15:00,38.8,31.2,30.20,ENE,67,0.0,4.0,74,0.00,,---,0.00,VWS V14.01,2013-03-07 06:15:00,
2013-03-07 00:16:00,38.9,31.7,30.21,ENE,63,0.0,0.0,75,0.00,,---,0.00,VWS V14.01,2013-03-07 06:16:00,
2013-03-07 00:21:00,38.6,32.0,30.21,ENE,63,0.0,0.0,77,0.00,,---,0.00,VWS V14.01,2013-03-07 06:21:00,
2013-03-07 00:27:00,38.3,31.7,30.21,ENE,72,0.0,1.0,77,0.00,,---,0.00,VWS V14.01,2013-03-07 06:27:00,
2013-03-07 00:30:00,39.2,31.6,30.19,ENE,76,0.0,4.0,74,0.00,,---,0.00,VWS V14.01,2013-03-07 06:30:00,
2013-03-07 00:32:00,38.0,31.4,30.20,ENE,72,0.0,1.0,77,0.00,,---,0.00,VWS V14.01,2013-03-07 06:32:00,
2013-03-07 00:37:00,37.9,31.4,30.20,ENE,72,0.0,1.0,77,0.00,,---,0.00,VWS V14.01,2013-03-07 06:37:00,
2013-03-07 00:42:00,38.2,31.6,30.20,East,84,0.0,4.0,77,0.00,,---,0.00,VWS V14.01,2013-03-07 06:42:00,
2013-03-07 00:45:00,39.1,31.5,30.19,East,88,3.0,6.0,74,0.00,,---,0.00,VWS V14.01,2013-03-07 06:45:00,
2013-03-07 00:47:00,38.3,31.7,30.20,East,82,0.0,2.0,77,0.00,,---,0.00,VWS V14.01,2013-03-07 06:47:00,
2013-03-07 00:52:00,38.3,31.4,30.20,East,93,3.0,4.0,76,0.00,,---,0.00,VWS V14.01,2013-03-07 06:52:00,
2013-03-07 00:57:00,38.3,31.4,30.20,ESE,107,0.0,5.0,76,0.00,,---,0.00,VWS V14.01,2013-03-07 06:57:00,
2013-03-07 01:00:00,39.5,30.9,30.19,ENE,71,0.0,4.0,71,0.00,,---,0.00,VWS V14.01,2013-03-07 07:00:00,
2013-03-07 01:02:00,38.2,31.3,30.19,East,96,0.0,3.0,76,0.00,,---,0.00,VWS V14.01,2013-03-07 07:02:00,
2013-03-07 01:07:00,38.3,31.1,30.19,East,97,2.0,3.0,75,0.00,,---,0.00,VWS V14.01,2013-03-07 07:07:00,
2013-03-07 01:12:00,38.6,31.0,30.19,ENE,67,3.0,4.0,74,0.00,,---,0.00,VWS V14.01,2013-03-07 07:12:00,
2013-03-07 01:15:00,39.3,31.0,30.20,NE,46,0.0,4.0,72,0.00,,---,0.00,VWS V14.01,2013-03-07 07:15:00,
2013-03-07 01:17:00,39.1,31.2,30.20,ENE,67,0.0,0.0,73,0.00,,---,0.00,VWS V14.01,2013-03-07 07:17:00,
2013-03-07 01:22:00,39.2,31.3,30.20,ENE,71,0.0,2.0,73,0.00,,---,0.00,VWS V14.01,2013-03-07 07:22:00,
2013-03-07 01:27:00,39.2,31.6,30.20,ENE,76,0.0,4.0,74,0.00,,---,0.00,VWS V14.01,2013-03-07 07:27:00,
2013-03-07 01:30:00,39.1,31.5,30.21,NNE,32,0.0,2.0,74,0.00,,---,0.00,VWS V14.01,2013-03-07 07:30:00,
2013-03-07 01:32:00,39.1,32.2,30.19,ENE,76,0.0,1.0,76,0.00,,---,0.00,VWS V14.01,2013-03-07 07:32:00,
2013-03-07 01:37:00,38.9,31.7,30.19,ENE,74,0.0,2.0,75,0.00,,---,0.00,VWS V14.01,2013-03-07 07:37:00,
2013-03-07 01:42:00,38.9,31.3,30.19,NE,55,5.0,6.0,74,0.00,,---,0.00,VWS V14.01,2013-03-07 07:42:00,
2013-03-07 01:45:00,38.5,31.6,30.20,NNE,32,0.0,0.0,76,0.00,,---,0.00,VWS V14.01,2013-03-07 07:45:00,
2013-03-07 01:47:00,39.2,31.3,30.19,East,92,0.0,4.0,73,0.00,,---,0.00,VWS V14.01,2013-03-07 07:47:00,
2013-03-07 01:52:00,39.5,31.2,30.19,ENE,71,1.0,4.0,72,0.00,,---,0.00,VWS V14.01,2013-03-07 07:52:00,
2013-03-07 01:58:00,39.5,30.9,30.19,ENE,71,0.0,4.0,71,0.00,,---,0.00,VWS V14.01,2013-03-07 07:58:00,
2013-03-07 02:00:00,37.9,31.7,30.20,NNE,32,0.0,0.0,78,0.00,,---,0.00,VWS V14.01,2013-03-07 08:00:00,
2013-03-07 02:03:00,39.5,30.9,30.19,ENE,71,2.0,2.0,71,0.00,,---,0.00,VWS V14.01,2013-03-07 08:03:00,
2013-03-07 02:08:00,39.5,30.9,30.19,ENE,71,0.0,2.0,71,0.00,,---,0.00,VWS V14.01,2013-03-07 08:08:00,
2013-03-07 02:13:00,39.3,31.0,30.19,NE,46,0.0,4.0,72,0.00,,---,0.00,VWS V14.01,2013-03-07 08:13:00,
2013-03-07 02:15:00,37.2,31.6,30.20,NNE,32,0.0,0.0,80,0.00,,---,0.00,VWS V14.01,2013-03-07 08:15:00,
2013-03-07 02:18:00,39.2,31.0,30.20,NNE,32,0.0,2.0,72,0.00,,---,0.00,VWS V14.01,2013-03-07 08:18:00,
2013-03-07 02:23:00,39.1,30.9,30.20,NNE,32,0.0,2.0,72,0.00,,---,0.00,VWS V14.01,2013-03-07 08:23:00,
2013-03-07 02:28:00,39.1,31.5,30.21,NNE,32,0.0,2.0,74,0.00,,---,0.00,VWS V14.01,2013-03-07 08:28:00,
2013-03-07 02:30:00,36.5,31.5,30.20,NNE,32,0.0,0.0,82,0.00,,---,0.00,VWS V14.01,2013-03-07 08:30:00,
2013-03-07 02:33:00,38.9,31.3,30.21,NNE,32,0.0,0.0,74,0.00,,---,0.00,VWS V14.01,2013-03-07 08:33:00,
2013-03-07 02:38:00,38.8,30.9,30.21,NNE,32,0.0,0.0,73,0.00,,---,0.00,VWS V14.01,2013-03-07 08:38:00,
2013-03-07 02:43:00,38.6,31.7,30.20,NNE,32,0.0,0.0,76,0.00,,---,0.00,VWS V14.01,2013-03-07 08:43:00,
2013-03-07 02:45:00,35.9,31.0,30.21,NNE,32,0.0,0.0,82,0.00,,---,0.00,VWS V14.01,2013-03-07 08:45:00,
2013-03-07 02:48:00,38.3,31.4,30.20,NNE,32,0.0,0.0,76,0.00,,---,0.00,VWS V14.01,2013-03-07 08:48:00,
2013-03-07 02:53:00,38.2,31.6,30.20,NNE,32,0.0,0.0,77,0.00,,---,0.00,VWS V14.01,2013-03-07 08:53:00,
2013-03-07 02:58:00,37.9,31.7,30.20,NNE,32,0.0,0.0,78,0.00,,---,0.00,VWS V14.01,2013-03-07 08:58:00,
2013-03-07 03:00:00,35.6,31.2,30.22,NNE,32,0.0,0.0,84,0.00,,---,0.00,VWS V14.01,2013-03-07 09:00:00,
2013-03-07 03:03:00,37.6,31.4,30.20,NNE,32,0.0,0.0,78,0.00,,---,0.00,VWS V14.01,2013-03-07 09:03:00,
2013-03-07 03:08:00,37.3,31.1,30.20,NNE,32,0.0,0.0,78,0.00,,---,0.00,VWS V14.01,2013-03-07 09:08:00,
2013-03-07 03:13:00,37.2,31.3,30.20,NNE,32,0.0,0.0,79,0.00,,---,0.00,VWS V14.01,2013-03-07 09:13:00,
2013-03-07 03:15:00,34.7,31.0,30.22,NNE,32,0.0,1.0,86,0.00,,---,0.00,VWS V14.01,2013-03-07 09:15:00,
2013-03-07 03:18:00,36.9,31.3,30.20,NNE,32,0.0,0.0,80,0.00,,---,0.00,VWS V14.01,2013-03-07 09:18:00,
2013-03-07 03:23:00,36.8,31.5,30.20,NNE,32,0.0,0.0,81,0.00,,---,0.00,VWS V14.01,2013-03-07 09:23:00,
2013-03-07 03:29:00,36.5,31.2,30.20,NNE,32,0.0,0.0,81,0.00,,---,0.00,VWS V14.01,2013-03-07 09:29:00,
2013-03-07 03:30:00,34.3,30.6,30.22,NNE,32,0.0,0.0,86,0.00,,---,0.00,VWS V14.01,2013-03-07 09:30:00,
2013-03-07 03:34:00,36.3,31.3,30.20,NNE,32,0.0,0.0,82,0.00,,---,0.00,VWS V14.01,2013-03-07 09:34:00,
2013-03-07 03:39:00,36.2,31.2,30.20,NNE,32,0.0,0.0,82,0.00,,---,0.00,VWS V14.01,2013-03-07 09:39:00,
2013-03-07 03:44:00,35.9,31.0,30.21,NNE,32,0.0,0.0,82,0.00,,---,0.00,VWS V14.01,2013-03-07 09:44:00,
2013-03-07 03:45:00,33.8,30.4,30.22,NNE,32,0.0,0.0,87,0.00,,---,0.00,VWS V14.01,2013-03-07 09:45:00,
2013-03-07 03:49:00,35.8,31.1,30.21,NNE,32,0.0,0.0,83,0.00,,---,0.00,VWS V14.01,2013-03-07 09:49:00,
2013-03-07 03:54:00,35.6,31.0,30.21,NNE,32,0.0,0.0,83,0.00,,---,0.00,VWS V14.01,2013-03-07 09:54:00,
2013-03-07 03:59:00,35.6,31.2,30.22,NNE,32,0.0,0.0,84,0.00,,---,0.00,VWS V14.01,2013-03-07 09:59:00,
2013-03-07 04:00:00,33.2,29.8,30.22,NNE,32,0.0,0.0,87,0.00,,---,0.00,VWS V14.01,2013-03-07 10:00:00,
2013-03-07 04:04:00,35.5,31.1,30.22,NNE,32,0.0,0.0,84,0.00,,---,0.00,VWS V14.01,2013-03-07 10:04:00,
2013-03-07 04:09:00,35.0,31.0,30.22,NNE,32,0.0,0.0,85,0.00,,---,0.00,VWS V14.01,2013-03-07 10:09:00,
2013-03-07 04:14:00,34.7,31.0,30.22,NNE,32,0.0,0.0,86,0.00,,---,0.00,VWS V14.01,2013-03-07 10:14:00,
2013-03-07 04:15:00,32.9,29.7,30.23,NNE,32,0.0,0.0,88,0.00,,---,0.00,VWS V14.01,2013-03-07 10:15:00,
2013-03-07 04:19:00,34.6,30.9,30.22,NNE,32,0.0,0.0,86,0.00,,---,0.00,VWS V14.01,2013-03-07 10:19:00,
2013-03-07 04:24:00,34.4,30.6,30.22,NNE,32,0.0,0.0,86,0.00,,---,0.00,VWS V14.01,2013-03-07 10:24:00,
2013-03-07 04:29:00,34.3,30.6,30.22,NNE,32,0.0,0.0,86,0.00,,---,0.00,VWS V14.01,2013-03-07 10:29:00,
2013-03-07 04:30:00,32.5,29.6,30.24,NNE,32,0.0,0.0,89,0.00,,---,0.00,VWS V14.01,2013-03-07 10:30:00,
2013-03-07 04:34:00,34.1,30.4,30.22,NNE,32,0.0,0.0,86,0.00,,---,0.00,VWS V14.01,2013-03-07 10:34:00,
2013-03-07 04:40:00,34.0,30.5,30.22,NNE,32,0.0,0.0,87,0.00,,---,0.00,VWS V14.01,2013-03-07 10:40:00,
2013-03-07 04:45:00,33.8,30.4,30.22,NNE,32,0.0,0.0,87,0.00,,---,0.00,VWS V14.01,2013-03-07 10:45:00,
2013-03-07 04:50:00,33.5,30.0,30.22,NNE,32,0.0,0.0,87,0.00,,---,0.00,VWS V14.01,2013-03-07 10:50:00,
2013-03-07 04:55:00,33.4,30.0,30.22,NNE,32,0.0,0.0,87,0.00,,---,0.00,VWS V14.01,2013-03-07 10:55:00,
2013-03-07 05:00:00,33.1,29.7,30.22,NNE,32,0.0,0.0,87,0.00,,---,0.00,VWS V14.01,2013-03-07 11:00:00,
2013-03-07 05:05:00,32.9,29.7,30.22,NNE,32,0.0,0.0,88,0.00,,---,0.00,VWS V14.01,2013-03-07 11:05:00,
2013-03-07 05:10:00,32.9,29.7,30.22,NNE,32,0.0,0.0,88,0.00,,---,0.00,VWS V14.01,2013-03-07 11:10:00,
2013-03-07 05:15:00,32.9,29.7,30.23,NNE,32,0.0,0.0,88,0.00,,---,0.00,VWS V14.01,2013-03-07 11:15:00,
2013-03-07 05:20:00,32.8,29.6,30.23,NNE,32,0.0,0.0,88,0.00,,---,0.00,VWS V14.01,2013-03-07 11:20:00,
2013-03-07 05:25:00,32.5,29.6,30.23,NNE,32,0.0,0.0,89,0.00,,---,0.00,VWS V14.01,2013-03-07 11:25:00,
2013-03-07 05:30:00,32.4,29.5,30.24,NNE,32,0.0,0.0,89,0.00,,---,0.00,VWS V14.01,2013-03-07 11:30:00,
2013-03-07 05:36:00,32.2,29.3,30.24,NNE,32,0.0,0.0,89,0.00,,---,0.00,VWS V14.01,2013-03-07 11:36:00,
2013-03-07 05:41:00,32.2,29.3,30.24,NNE,32,0.0,0.0,89,0.00,,---,0.00,VWS V14.01,2013-03-07 11:41:00,
2013-03-07 05:45:00,31.2,28.9,30.24,NNE,32,0.0,0.0,91,0.00,,---,0.00,VWS V14.01,2013-03-07 11:45:00,
2013-03-07 05:46:00,32.2,29.3,30.22,NNE,32,0.0,0.0,89,0.00,,---,0.00,VWS V14.01,2013-03-07 11:46:00,
2013-03-07 05:51:00,31.9,29.0,30.22,NNE,32,0.0,0.0,89,0.00,,---,0.00,VWS V14.01,2013-03-07 11:51:00,
2013-03-07 05:56:00,31.9,29.3,30.22,NNE,32,0.0,0.0,90,0.00,,---,0.00,VWS V14.01,2013-03-07 11:56:00,
2013-03-07 06:00:00,31.8,29.8,30.25,NNE,32,0.0,1.0,92,0.00,,---,0.00,VWS V14.01,2013-03-07 12:00:00,
2013-03-07 06:01:00,31.8,29.2,30.23,NNE,32,0.0,0.0,90,0.00,,---,0.00,VWS V14.01,2013-03-07 12:01:00,
2013-03-07 06:06:00,31.8,29.2,30.23,NNE,32,0.0,0.0,90,0.00,,---,0.00,VWS V14.01,2013-03-07 12:06:00,
2013-03-07 06:11:00,31.6,29.0,30.23,NNE,32,0.0,0.0,90,0.00,,---,0.00,VWS V14.01,2013-03-07 12:11:00,
2013-03-07 06:15:00,32.9,30.8,30.25,ESE,102,1.0,3.0,92,0.00,,---,0.00,VWS V14.01,2013-03-07 12:15:00,
2013-03-07 06:16:00,31.6,29.0,30.23,NNE,32,0.0,0.0,90,0.00,,---,0.00,VWS V14.01,2013-03-07 12:16:00,
2013-03-07 06:21:00,31.5,28.9,30.23,NNE,32,0.0,0.0,90,0.00,,---,0.00,VWS V14.01,2013-03-07 12:21:00,
2013-03-07 06:26:00,31.3,28.7,30.23,NNE,32,0.0,1.0,90,0.00,,---,0.00,VWS V14.01,2013-03-07 12:26:00,
2013-03-07 06:30:00,35.0,32.9,30.27,ENE,61,1.0,3.0,92,0.00,,---,0.00,VWS V14.01,2013-03-07 12:30:00,
2013-03-07 06:32:00,31.3,29.0,30.24,NNE,32,0.0,0.0,91,0.00,,---,0.00,VWS V14.01,2013-03-07 12:32:00,
2013-03-07 06:37:00,31.3,29.0,30.24,NNE,32,0.0,0.0,91,0.00,,---,0.00,VWS V14.01,2013-03-07 12:37:00,
2013-03-07 06:42:00,31.2,28.9,30.24,NNE,32,0.0,0.0,91,0.00,,---,0.00,VWS V14.01,2013-03-07 12:42:00,
2013-03-07 06:45:00,37.9,34.4,30.27,ENE,67,2.0,7.0,87,0.00,,---,0.00,VWS V14.01,2013-03-07 12:45:00,
2013-03-07 06:47:00,31.3,29.0,30.24,NNE,32,0.0,0.0,91,0.00,,---,0.00,VWS V14.01,2013-03-07 12:47:00,
2013-03-07 06:52:00,31.3,29.0,30.24,NNE,32,0.0,1.0,91,0.00,,---,0.00,VWS V14.01,2013-03-07 12:52:00,
2013-03-07 06:57:00,31.6,29.5,30.24,NNE,32,0.0,1.0,92,0.00,,---,0.00,VWS V14.01,2013-03-07 12:57:00,
2013-03-07 07:00:00,40.6,34.0,30.27,ESE,104,0.0,7.0,77,0.00,,---,0.00,VWS V14.01,2013-03-07 13:00:00,
2013-03-07 07:02:00,31.9,29.8,30.25,NNE,32,0.0,2.0,92,0.00,,---,0.00,VWS V14.01,2013-03-07 13:02:00,
2013-03-07 07:07:00,32.2,30.1,30.25,NNE,32,0.0,3.0,92,0.00,,---,0.00,VWS V14.01,2013-03-07 13:07:00,
2013-03-07 07:12:00,32.7,30.6,30.25,ESE,103,0.0,3.0,92,0.00,,---,0.00,VWS V14.01,2013-03-07 13:12:00,
2013-03-07 07:15:00,42.9,34.2,30.28,East,96,3.0,6.0,71,0.00,,---,0.00,VWS V14.01,2013-03-07 13:15:00,
2013-03-07 07:17:00,33.5,31.7,30.25,ESE,102,0.0,1.0,93,0.00,,---,0.00,VWS V14.01,2013-03-07 13:17:00,
2013-03-07 07:22:00,34.3,32.5,30.25,ESE,102,0.0,1.0,93,0.00,,---,0.00,VWS V14.01,2013-03-07 13:22:00,
2013-03-07 07:28:00,34.7,32.6,30.25,NE,54,3.0,3.0,92,0.00,,---,0.00,VWS V14.01,2013-03-07 13:28:00,
2013-03-07 07:30:00,44.3,33.7,30.30,SE,125,2.0,5.0,66,0.00,,---,0.00,VWS V14.01,2013-03-07 13:30:00,
2013-03-07 07:32:00,35.6,33.5,30.27,NE,55,2.0,3.0,92,0.00,,---,0.00,VWS V14.01,2013-03-07 13:32:00,
2013-03-07 07:38:00,36.6,34.2,30.27,ENE,59,0.0,3.0,91,0.00,,---,0.00,VWS V14.01,2013-03-07 13:38:00,
2013-03-07 07:43:00,37.6,34.4,30.27,East,93,7.0,7.0,88,0.00,,---,0.00,VWS V14.01,2013-03-07 13:43:00,
2013-03-07 07:45:00,45.5,33.2,30.31,East,86,4.0,7.0,62,0.00,,---,0.00,VWS V14.01,2013-03-07 13:45:00,
2013-03-07 07:48:00,38.8,34.7,30.27,East,97,6.0,6.0,85,0.00,,---,0.00,VWS V14.01,2013-03-07 13:48:00,
2013-03-07 07:53:00,39.8,34.8,30.27,SE,125,0.0,7.0,82,0.00,,---,0.00,VWS V14.01,2013-03-07 13:53:00,
2013-03-07 07:58:00,40.5,34.5,30.27,ESE,108,3.0,7.0,79,0.00,,---,0.00,VWS V14.01,2013-03-07 13:58:00,
2013-03-07 08:00:00,47.3,33.7,30.30,ESE,117,0.0,6.0,59,0.00,,---,0.00,VWS V14.01,2013-03-07 14:00:00,
2013-03-07 08:03:00,41.3,34.3,30.27,ESE,104,0.0,0.0,76,0.00,,---,0.00,VWS V14.01,2013-03-07 14:03:00,
2013-03-07 08:08:00,42.1,33.7,30.27,ESE,113,0.0,4.0,72,0.00,,---,0.00,VWS V14.01,2013-03-07 14:08:00,
2013-03-07 08:13:00,42.9,34.2,30.28,ESE,122,4.0,6.0,71,0.00,,---,0.00,VWS V14.01,2013-03-07 14:13:00,
2013-03-07 08:15:00,48.0,33.5,30.31,East,92,0.0,10.0,57,0.00,,---,0.00,VWS V14.01,2013-03-07 14:15:00,
2013-03-07 08:18:00,43.5,34.0,30.28,ESE,107,0.0,5.0,69,0.00,,---,0.00,VWS V14.01,2013-03-07 14:18:00,
2013-03-07 08:23:00,43.8,33.9,30.28,SE,146,0.0,5.0,68,0.00,,---,0.00,VWS V14.01,2013-03-07 14:23:00,
2013-03-07 08:28:00,44.3,33.7,30.30,SE,144,3.0,5.0,66,0.00,,---,0.00,VWS V14.01,2013-03-07 14:28:00,
2013-03-07 08:30:00,49.6,34.1,30.31,East,99,3.0,8.0,55,0.00,,---,0.00,VWS V14.01,2013-03-07 14:30:00,
2013-03-07 08:33:00,44.6,33.2,30.30,ESE,104,4.0,6.0,64,0.00,,---,0.00,VWS V14.01,2013-03-07 14:33:00,
2013-03-07 08:38:00,45.2,33.4,30.30,ESE,110,3.0,7.0,63,0.00,,---,0.00,VWS V14.01,2013-03-07 14:38:00,
2013-03-07 08:43:00,45.5,33.2,30.31,East,101,7.0,7.0,62,0.00,,---,0.00,VWS V14.01,2013-03-07 14:43:00,
2013-03-07 08:45:00,50.2,34.2,30.30,ESE,112,2.0,6.0,54,0.00,,---,0.00,VWS V14.01,2013-03-07 14:45:00,
2013-03-07 08:48:00,45.8,33.1,30.31,East,97,4.0,6.0,61,0.00,,---,0.00,VWS V14.01,2013-03-07 14:48:00,
2013-03-07 08:54:00,46.4,34.1,30.31,SE,134,0.0,6.0,62,0.00,,---,0.00,VWS V14.01,2013-03-07 14:54:00,
2013-03-07 08:59:00,47.3,33.7,30.30,ESE,117,0.0,6.0,59,0.00,,---,0.00,VWS V14.01,2013-03-07 14:59:00,
2013-03-07 09:00:00,51.6,35.0,30.29,South,178,4.0,6.0,53,0.00,,---,0.00,VWS V14.01,2013-03-07 15:00:00,
2013-03-07 09:04:00,47.6,33.6,30.30,ESE,112,7.0,10.0,58,0.00,,---,0.00,VWS V14.01,2013-03-07 15:04:00,
2013-03-07 09:09:00,47.4,33.0,30.30,SE,132,5.0,10.0,57,0.00,,---,0.00,VWS V14.01,2013-03-07 15:09:00,
2013-03-07 09:14:00,48.0,33.5,30.31,East,92,0.0,10.0,57,0.00,,---,0.00,VWS V14.01,2013-03-07 15:14:00,
2013-03-07 09:15:00,52.3,34.2,30.29,SE,125,4.0,8.0,50,0.00,,---,0.00,VWS V14.01,2013-03-07 15:15:00,
2013-03-07 09:19:00,48.5,34.4,30.31,ESE,110,0.0,4.0,58,0.00,,---,0.00,VWS V14.01,2013-03-07 15:19:00,
2013-03-07 09:24:00,49.2,34.2,30.31,East,84,2.0,8.0,56,0.00,,---,0.00,VWS V14.01,2013-03-07 15:24:00,
2013-03-07 09:29:00,49.6,34.1,30.31,East,99,2.0,3.0,55,0.00,,---,0.00,VWS V14.01,2013-03-07 15:29:00,
2013-03-07 09:30:00,53.5,33.8,30.28,ESE,106,2.0,6.0,47,0.00,,---,0.00,VWS V14.01,2013-03-07 15:30:00,
2013-03-07 09:34:00,49.5,34.0,30.31,ESE,107,6.0,6.0,55,0.00,,---,0.00,VWS V14.01,2013-03-07 15:34:00,
2013-03-07 09:39:00,49.6,35.0,30.31,SE,137,0.0,6.0,57,0.00,,---,0.00,VWS V14.01,2013-03-07 15:39:00,
2013-03-07 09:44:00,50.2,34.2,30.30,East,100,2.0,2.0,54,0.00,,---,0.00,VWS V14.01,2013-03-07 15:44:00,
2013-03-07 09:45:00,54.5,33.6,30.28,SSE,151,3.0,5.0,45,0.00,,---,0.00,VWS V14.01,2013-03-07 15:45:00,
2013-03-07 09:49:00,50.5,34.0,30.30,SSE,159,0.0,3.0,53,0.00,,---,0.00,VWS V14.01,2013-03-07 15:49:00,
2013-03-07 09:54:00,51.4,36.2,30.30,SSE,168,3.0,5.0,56,0.00,,---,0.00,VWS V14.01,2013-03-07 15:54:00,
2013-03-07 09:59:00,51.6,35.0,30.29,SSE,168,3.0,4.0,53,0.00,,---,0.00,VWS V14.01,2013-03-07 15:59:00,
2013-03-07 10:00:00,54.7,32.1,30.28,SE,127,2.0,6.0,42,0.00,,---,0.00,VWS V14.01,2013-03-07 16:00:00,
2013-03-07 10:04:00,51.3,33.3,30.29,ESE,122,7.0,8.0,50,0.00,,---,0.00,VWS V14.01,2013-03-07 16:04:00,
2013-03-07 10:09:00,51.7,33.7,30.29,South,175,0.0,8.0,50,0.00,,---,0.00,VWS V14.01,2013-03-07 16:09:00,
2013-03-07 10:14:00,52.5,34.4,30.29,SE,140,0.0,4.0,50,0.00,,---,0.00,VWS V14.01,2013-03-07 16:14:00,
2013-03-07 10:15:00,56.0,33.2,30.27,East,101,0.0,6.0,42,0.00,,---,0.00,VWS V14.01,2013-03-07 16:15:00,
2013-03-07 10:19:00,53.2,34.0,30.29,ESE,113,3.0,4.0,48,0.00,,---,0.00,VWS V14.01,2013-03-07 16:19:00,
2013-03-07 10:24:00,53.2,35.1,30.29,East,101,0.0,6.0,50,0.00,,---,0.00,VWS V14.01,2013-03-07 16:24:00,
2013-03-07 10:29:00,53.6,34.4,30.28,ESE,106,1.0,3.0,48,0.00,,---,0.00,VWS V14.01,2013-03-07 16:29:00,
2013-03-07 10:30:00,57.0,35.3,30.27,SSW,192,2.0,7.0,44,0.00,,---,0.00,VWS V14.01,2013-03-07 16:30:00,
2013-03-07 10:35:00,53.9,34.2,30.28,ESE,113,4.0,5.0,47,0.00,,---,0.00,VWS V14.01,2013-03-07 16:35:00,
2013-03-07 10:40:00,54.1,32.7,30.28,ESE,123,2.0,5.0,44,0.00,,---,0.00,VWS V14.01,2013-03-07 16:40:00,
2013-03-07 10:45:00,54.5,33.0,30.28,SSE,159,0.0,4.0,44,0.00,,---,0.00,VWS V14.01,2013-03-07 16:45:00,
2013-03-07 10:50:00,54.5,33.0,30.28,ENE,58,0.0,5.0,44,0.00,,---,0.00,VWS V14.01,2013-03-07 16:50:00,
2013-03-07 10:55:00,54.8,33.3,30.28,South,175,4.0,5.0,44,0.00,,---,0.00,VWS V14.01,2013-03-07 16:55:00,
2013-03-07 11:00:00,54.7,32.7,30.28,NE,53,0.0,3.0,43,0.00,,---,0.00,VWS V14.01,2013-03-07 17:00:00,
2013-03-07 11:05:00,55.3,34.9,30.28,NNE,20,0.0,5.0,46,0.00,,---,0.00,VWS V14.01,2013-03-07 17:05:00,
2013-03-07 11:10:00,55.9,32.6,30.28,SE,132,2.0,5.0,41,0.00,,---,0.00,VWS V14.01,2013-03-07 17:10:00,
2013-03-07 11:15:00,56.0,33.2,30.27,ENE,78,0.0,0.0,42,0.00,,---,0.00,VWS V14.01,2013-03-07 17:15:00,
2013-03-07 11:20:00,56.2,33.4,30.27,East,92,0.0,0.0,42,0.00,,---,0.00,VWS V14.01,2013-03-07 17:20:00,
2013-03-07 11:25:00,56.9,33.5,30.27,SSE,151,6.0,6.0,41,0.00,,---,0.00,VWS V14.01,2013-03-07 17:25:00,
2013-03-07 11:30:00,57.0,33.5,30.27,East,85,0.0,2.0,41,0.00,,---,0.00,VWS V14.01,2013-03-07 17:30:00,
2013-03-07 11:35:00,56.7,33.9,30.27,NW,307,4.0,6.0,42,0.00,,---,0.00,VWS V14.01,2013-03-07 17:35:00,
2013-03-07 11:40:00,56.9,34.7,30.27,SE,134,0.0,6.0,43,0.00,,---,0.00,VWS V14.01,2013-03-07 17:40:00,
2013-03-07 11:45:00,57.3,33.2,30.26,SE,136,2.0,5.0,40,0.00,,---,0.00,VWS V14.01,2013-03-07 17:45:00,
2013-03-07 11:50:00,57.3,32.6,30.26,North,355,4.0,8.0,39,0.00,,---,0.00,VWS V14.01,2013-03-07 17:50:00,
2013-03-07 11:56:00,57.5,35.2,30.26,ENE,69,1.0,8.0,43,0.00,,---,0.00,VWS V14.01,2013-03-07 17:56:00,
2013-03-07 12:00:00,60.7,33.6,30.23,North,355,0.0,6.0,36,0.00,,---,0.00,VWS V14.01,2013-03-07 18:00:00,
2013-03-07 12:01:00,58.3,33.5,30.26,ESE,108,2.0,5.0,39,0.00,,---,0.00,VWS V14.01,2013-03-07 18:01:00,
2013-03-07 12:06:00,58.4,32.9,30.26,ESE,107,6.0,7.0,38,0.00,,---,0.00,VWS V14.01,2013-03-07 18:06:00,
2013-03-07 12:11:00,58.1,32.7,30.26,ESE,109,0.0,7.0,38,0.00,,---,0.00,VWS V14.01,2013-03-07 18:11:00,
2013-03-07 12:15:00,61.8,31.6,30.22,South,173,0.0,5.0,32,0.00,,---,0.00,VWS V14.01,2013-03-07 18:15:00,
2013-03-07 12:16:00,58.3,33.5,30.25,ESE,107,0.0,0.0,39,0.00,,---,0.00,VWS V14.01,2013-03-07 18:16:00,
2013-03-07 12:21:00,58.3,32.8,30.25,SW,214,0.0,2.0,38,0.00,,---,0.00,VWS V14.01,2013-03-07 18:21:00,
2013-03-07 12:26:00,58.6,33.1,30.25,SSE,165,0.0,5.0,38,0.00,,---,0.00,VWS V14.01,2013-03-07 18:26:00,
2013-03-07 12:30:00,61.8,33.2,30.21,East,84,2.0,4.0,34,0.00,,---,0.00,VWS V14.01,2013-03-07 18:30:00,
2013-03-07 12:31:00,58.9,33.4,30.25,West,277,0.0,3.0,38,0.00,,---,0.00,VWS V14.01,2013-03-07 18:31:00,
2013-03-07 12:36:00,59.0,36.0,30.25,West,280,0.0,5.0,42,0.00,,---,0.00,VWS V14.01,2013-03-07 18:36:00,
2013-03-07 12:41:00,59.8,33.5,30.25,East,92,3.0,5.0,37,0.00,,---,0.00,VWS V14.01,2013-03-07 18:41:00,
2013-03-07 12:45:00,62.4,34.4,30.20,East,85,0.0,5.0,35,0.00,,---,0.00,VWS V14.01,2013-03-07 18:45:00,
2013-03-07 12:47:00,59.8,32.1,30.23,SE,125,0.0,2.0,35,0.00,,---,0.00,VWS V14.01,2013-03-07 18:47:00,
2013-03-07 12:52:00,60.1,32.4,30.23,NE,38,0.0,2.0,35,0.00,,---,0.00,VWS V14.01,2013-03-07 18:52:00,
2013-03-07 12:57:00,60.4,33.3,30.23,North,355,0.0,6.0,36,0.00,,---,0.00,VWS V14.01,2013-03-07 18:57:00,
2013-03-07 13:00:00,62.3,32.8,30.20,West,267,6.0,6.0,33,0.00,,---,0.00,VWS V14.01,2013-03-07 19:00:00,
2013-03-07 13:02:00,61.0,35.2,30.23,NE,48,3.0,4.0,38,0.00,,---,0.00,VWS V14.01,2013-03-07 19:02:00,
2013-03-07 13:07:00,61.6,33.7,30.23,NNE,31,2.0,5.0,35,0.00,,---,0.00,VWS V14.01,2013-03-07 19:07:00,
2013-03-07 13:12:00,61.6,32.2,30.23,NE,43,0.0,5.0,33,0.00,,---,0.00,VWS V14.01,2013-03-07 19:12:00,
2013-03-07 13:15:00,62.6,31.6,30.19,WNW,295,0.0,6.0,31,0.00,,---,0.00,VWS V14.01,2013-03-07 19:15:00,
2013-03-07 13:17:00,61.2,33.3,30.22,NE,46,4.0,4.0,35,0.00,,---,0.00,VWS V14.01,2013-03-07 19:17:00,
2013-03-07 13:22:00,61.2,32.6,30.22,North,5,0.0,4.0,34,0.00,,---,0.00,VWS V14.01,2013-03-07 19:22:00,
2013-03-07 13:28:00,61.6,32.2,30.22,East,90,2.0,4.0,33,0.00,,---,0.00,VWS V14.01,2013-03-07 19:28:00,
2013-03-07 13:30:00,64.0,32.8,30.18,North,9,4.0,5.0,31,0.00,,---,0.00,VWS V14.01,2013-03-07 19:30:00,
2013-03-07 13:33:00,61.6,32.2,30.21,East,101,1.0,5.0,33,0.00,,---,0.00,VWS V14.01,2013-03-07 19:33:00,
2013-03-07 13:38:00,61.8,33.9,30.21,SE,136,1.0,5.0,35,0.00,,---,0.00,VWS V14.01,2013-03-07 19:38:00,
2013-03-07 13:43:00,62.3,34.3,30.21,East,85,0.0,5.0,35,0.00,,---,0.00,VWS V14.01,2013-03-07 19:43:00,
2013-03-07 13:45:00,64.5,32.4,30.18,NE,54,0.0,6.0,30,0.00,,---,0.00,VWS V14.01,2013-03-07 19:45:00,
2013-03-07 13:48:00,63.2,32.1,30.20,WNW,299,4.0,5.0,31,0.00,,---,0.00,VWS V14.01,2013-03-07 19:48:00,
2013-03-07 13:53:00,62.6,33.1,30.20,WNW,288,4.0,6.0,33,0.00,,---,0.00,VWS V14.01,2013-03-07 19:53:00,
2013-03-07 13:58:00,62.3,32.9,30.20,WSW,246,3.0,6.0,33,0.00,,---,0.00,VWS V14.01,2013-03-07 19:58:00,
2013-03-07 14:00:00,66.0,33.7,30.18,SE,141,0.0,5.0,30,0.00,,---,0.00,VWS V14.01,2013-03-07 20:00:00,
2013-03-07 14:03:00,62.4,31.4,30.20,West,277,2.0,6.0,31,0.00,,---,0.00,VWS V14.01,2013-03-07 20:03:00,
2013-03-07 14:08:00,62.9,32.6,30.20,WNW,295,0.0,6.0,32,0.00,,---,0.00,VWS V14.01,2013-03-07 20:08:00,
2013-03-07 14:13:00,62.6,32.3,30.19,WNW,295,0.0,6.0,32,0.00,,---,0.00,VWS V14.01,2013-03-07 20:13:00,
2013-03-07 14:15:00,64.5,32.4,30.17,South,187,0.0,4.0,30,0.00,,---,0.00,VWS V14.01,2013-03-07 20:15:00,
2013-03-07 14:18:00,62.7,31.6,30.19,NW,304,0.0,0.0,31,0.00,,---,0.00,VWS V14.01,2013-03-07 20:18:00,
2013-03-07 14:23:00,63.1,32.0,30.19,ENE,74,0.0,0.0,31,0.00,,---,0.00,VWS V14.01,2013-03-07 20:23:00,
2013-03-07 14:28:00,63.9,32.7,30.18,NNE,19,4.0,5.0,31,0.00,,---,0.00,VWS V14.01,2013-03-07 20:28:00,
2013-03-07 14:30:00,65.2,31.3,30.17,ENE,67,0.0,4.0,28,0.00,,---,0.00,VWS V14.01,2013-03-07 20:30:00,
2013-03-07 14:33:00,64.0,32.0,30.18,West,273,2.0,6.0,30,0.00,,---,0.00,VWS V14.01,2013-03-07 20:33:00,
2013-03-07 14:39:00,64.2,31.3,30.18,WNW,292,0.0,6.0,29,0.00,,---,0.00,VWS V14.01,2013-03-07 20:39:00,
2013-03-07 14:44:00,64.5,33.2,30.18,NE,54,0.0,6.0,31,0.00,,---,0.00,VWS V14.01,2013-03-07 20:44:00,
2013-03-07 14:45:00,64.8,31.8,30.17,NNE,23,0.0,5.0,29,0.00,,---,0.00,VWS V14.01,2013-03-07 20:45:00,
2013-03-07 14:49:00,64.8,32.7,30.18,East,84,5.0,5.0,30,0.00,,---,0.00,VWS V14.01,2013-03-07 20:49:00,
2013-03-07 14:54:00,65.3,32.3,30.18,WSW,258,3.0,5.0,29,0.00,,---,0.00,VWS V14.01,2013-03-07 20:54:00,
2013-03-07 14:59:00,66.0,33.7,30.18,SE,141,0.0,5.0,30,0.00,,---,0.00,VWS V14.01,2013-03-07 20:59:00,
2013-03-07 15:00:00,64.7,33.4,30.17,NNE,23,0.0,2.0,31,0.00,,---,0.00,VWS V14.01,2013-03-07 21:00:00,
2013-03-07 15:04:00,65.5,33.3,30.18,SSW,202,0.0,4.0,30,0.00,,---,0.00,VWS V14.01,2013-03-07 21:04:00,
2013-03-07 15:09:00,65.0,32.8,30.18,South,186,0.0,4.0,30,0.00,,---,0.00,VWS V14.01,2013-03-07 21:09:00,
2013-03-07 15:14:00,64.5,32.4,30.17,South,187,0.0,0.0,30,0.00,,---,0.00,VWS V14.01,2013-03-07 21:14:00,
2013-03-07 15:15:00,65.3,30.5,30.16,NNE,23,0.0,3.0,27,0.00,,---,0.00,VWS V14.01,2013-03-07 21:15:00,
2013-03-07 15:19:00,64.7,31.7,30.17,East,80,0.0,4.0,29,0.00,,---,0.00,VWS V14.01,2013-03-07 21:19:00,
2013-03-07 15:24:00,64.8,31.0,30.17,ENE,67,0.0,4.0,28,0.00,,---,0.00,VWS V14.01,2013-03-07 21:24:00,
2013-03-07 15:29:00,65.2,32.2,30.17,ENE,67,0.0,1.0,29,0.00,,---,0.00,VWS V14.01,2013-03-07 21:29:00,
2013-03-07 15:30:00,65.0,32.8,30.17,NNW,336,0.0,4.0,30,0.00,,---,0.00,VWS V14.01,2013-03-07 21:30:00,
2013-03-07 15:34:00,65.2,33.0,30.17,NNE,20,4.0,5.0,30,0.00,,---,0.00,VWS V14.01,2013-03-07 21:34:00,
2013-03-07 15:39:00,65.0,33.7,30.17,NNE,17,0.0,5.0,31,0.00,,---,0.00,VWS V14.01,2013-03-07 21:39:00,
2013-03-07 15:44:00,64.7,33.4,30.17,NNE,23,0.0,1.0,31,0.00,,---,0.00,VWS V14.01,2013-03-07 21:44:00,
2013-03-07 15:45:00,65.0,32.0,30.17,NNW,336,0.0,2.0,29,0.00,,---,0.00,VWS V14.01,2013-03-07 21:45:00,
2013-03-07 15:49:00,64.5,30.7,30.17,NNE,23,0.0,1.0,28,0.00,,---,0.00,VWS V14.01,2013-03-07 21:49:00,
2013-03-07 15:55:00,64.5,31.6,30.17,NNE,23,1.0,1.0,29,0.00,,---,0.00,VWS V14.01,2013-03-07 21:55:00,
2013-03-07 16:00:00,64.7,33.4,30.17,NNE,23,0.0,1.0,31,0.00,,---,0.00,VWS V14.01,2013-03-07 22:00:00,
2013-03-07 16:05:00,64.8,33.5,30.17,NNE,23,1.0,2.0,31,0.00,,---,0.00,VWS V14.01,2013-03-07 22:05:00,
2013-03-07 16:10:00,65.0,31.1,30.17,NNE,23,0.0,3.0,28,0.00,,---,0.00,VWS V14.01,2013-03-07 22:10:00,
2013-03-07 16:15:00,65.3,32.3,30.16,NNE,23,0.0,0.0,29,0.00,,---,0.00,VWS V14.01,2013-03-07 22:15:00,
2013-03-07 16:20:00,65.8,31.8,30.16,North,5,1.0,4.0,28,0.00,,---,0.00,VWS V14.01,2013-03-07 22:20:00,
2013-03-07 16:25:00,65.3,31.4,30.16,NNW,336,0.0,4.0,28,0.00,,---,0.00,VWS V14.01,2013-03-07 22:25:00,
2013-03-07 16:30:00,65.0,31.1,30.17,NNW,336,0.0,1.0,28,0.00,,---,0.00,VWS V14.01,2013-03-07 22:30:00,
2013-03-07 16:35:00,64.7,30.9,30.17,NNW,336,0.0,2.0,28,0.00,,---,0.00,VWS V14.01,2013-03-07 22:35:00,
2013-03-07 16:40:00,64.7,30.9,30.17,NNW,336,0.0,2.0,28,0.00,,---,0.00,VWS V14.01,2013-03-07 22:40:00,
2013-03-07 16:45:00,65.3,33.1,30.17,NNW,336,0.0,1.0,30,0.00,,---,0.00,VWS V14.01,2013-03-07 22:45:00,
2013-03-07 16:50:00,66.0,32.0,30.17,NNW,336,0.0,1.0,28,0.00,,---,0.00,VWS V14.01,2013-03-07 22:50:00,
2013-03-07 16:55:00,66.3,34.8,30.17,NNW,336,0.0,3.0,31,0.00,,---,0.00,VWS V14.01,2013-03-07 22:55:00,
2013-03-07 17:00:00,65.2,33.8,30.16,SSW,205,0.0,0.0,31,0.00,,---,0.00,VWS V14.01,2013-03-07 23:00:00,
2013-03-07 17:05:00,64.7,33.4,30.16,SSW,205,0.0,0.0,31,0.00,,---,0.00,VWS V14.01,2013-03-07 23:05:00,
2013-03-07 17:10:00,64.5,34.8,30.16,SSW,205,0.0,0.0,33,0.00,,---,0.00,VWS V14.01,2013-03-07 23:10:00,
2013-03-07 17:15:00,64.3,33.0,30.16,SSW,205,0.0,0.0,31,0.00,,---,0.00,VWS V14.01,2013-03-07 23:15:00,
2013-03-07 17:20:00,64.2,33.0,30.16,SSW,205,0.0,0.0,31,0.00,,---,0.00,VWS V14.01,2013-03-07 23:20:00,
2013-03-07 17:26:00,64.3,33.0,30.16,SSW,205,0.0,0.0,31,0.00,,---,0.00,VWS V14.01,2013-03-07 23:26:00,
2013-03-07 17:30:00,57.2,38.2,30.18,SSW,205,0.0,0.0,49,0.00,,---,0.00,VWS V14.01,2013-03-07 23:30:00,
2013-03-07 17:31:00,64.0,33.6,30.17,SSW,205,0.0,0.0,32,0.00,,---,0.00,VWS V14.01,2013-03-07 23:31:00,
2013-03-07 17:36:00,63.7,32.5,30.17,SSW,205,0.0,0.0,31,0.00,,---,0.00,VWS V14.01,2013-03-07 23:36:00,
2013-03-07 17:41:00,63.4,32.3,30.17,SSW,205,0.0,0.0,31,0.00,,---,0.00,VWS V14.01,2013-03-07 23:41:00,
2013-03-07 17:45:00,55.0,38.2,30.19,SSW,205,0.0,0.0,53,0.00,,---,0.00,VWS V14.01,2013-03-07 23:45:00,
2013-03-07 17:46:00,63.2,33.6,30.17,SSW,205,0.0,0.0,33,0.00,,---,0.00,VWS V14.01,2013-03-07 23:46:00,
2013-03-07 17:51:00,63.1,35.0,30.17,SSW,205,0.0,0.0,35,0.00,,---,0.00,VWS V14.01,2013-03-07 23:51:00,
2013-03-07 17:56:00,62.7,34.0,30.17,SSW,205,0.0,0.0,34,0.00,,---,0.00,VWS V14.01,2013-03-07 23:56:00,
2013-03-07 18:00:00,52.8,40.2,30.18,SSW,205,0.0,0.0,62,0.00,,---,0.00,VWS V14.01,2013-03-08 00:00:00,
2013-03-07 18:01:00,62.1,34.2,30.17,SSW,205,0.0,0.0,35,0.00,,---,0.00,VWS V14.01,2013-03-08 00:01:00,
2013-03-07 18:06:00,61.2,36.7,30.17,SSW,205,0.0,0.0,40,0.00,,---,0.00,VWS V14.01,2013-03-08 00:06:00,
2013-03-07 18:11:00,60.2,37.6,30.17,SSW,205,0.0,0.0,43,0.00,,---,0.00,VWS V14.01,2013-03-08 00:11:00,
2013-03-07 18:15:00,51.4,40.8,30.18,SSW,205,0.0,0.0,67,0.00,,---,0.00,VWS V14.01,2013-03-08 00:15:00,
2013-03-07 18:16:00,59.5,36.4,30.17,SSW,205,0.0,0.0,42,0.00,,---,0.00,VWS V14.01,2013-03-08 00:16:00,
2013-03-07 18:21:00,58.7,37.4,30.17,SSW,205,0.0,0.0,45,0.00,,---,0.00,VWS V14.01,2013-03-08 00:21:00,
2013-03-07 18:26:00,57.8,38.3,30.17,SSW,205,0.0,0.0,48,0.00,,---,0.00,VWS V14.01,2013-03-08 00:26:00,
2013-03-07 18:30:00,50.1,39.6,30.18,SSW,205,0.0,0.0,67,0.00,,---,0.00,VWS V14.01,2013-03-08 00:30:00,
2013-03-07 18:31:00,56.7,37.8,30.18,SSW,205,0.0,0.0,49,0.00,,---,0.00,VWS V14.01,2013-03-08 00:31:00,
2013-03-07 18:36:00,55.9,37.5,30.18,SSW,205,0.0,0.0,50,0.00,,---,0.00,VWS V14.01,2013-03-08 00:36:00,
2013-03-07 18:41:00,55.3,38.5,30.18,SSW,205,0.0,0.0,53,0.00,,---,0.00,VWS V14.01,2013-03-08 00:41:00,
2013-03-07 18:45:00,49.1,39.0,30.18,SSW,205,0.0,0.0,68,0.00,,---,0.00,VWS V14.01,2013-03-08 00:45:00,
2013-03-07 18:47:00,54.5,39.1,30.19,SSW,205,0.0,0.0,56,0.00,,---,0.00,VWS V14.01,2013-03-08 00:47:00,
2013-03-07 18:52:00,53.5,40.8,30.19,SSW,205,0.0,0.0,62,0.00,,---,0.00,VWS V14.01,2013-03-08 00:52:00,
2013-03-07 18:57:00,52.9,40.2,30.19,SSW,205,0.0,0.0,62,0.00,,---,0.00,VWS V14.01,2013-03-08 00:57:00,
2013-03-07 19:00:00,48.3,40.1,30.19,SSW,205,0.0,0.0,73,0.00,,---,0.00,VWS V14.01,2013-03-08 01:00:00,
2013-03-07 19:02:00,52.5,39.9,30.18,SSW,205,0.0,0.0,62,0.00,,---,0.00,VWS V14.01,2013-03-08 01:02:00,
2013-03-07 19:07:00,52.0,40.2,30.18,SSW,205,0.0,0.0,64,0.00,,---,0.00,VWS V14.01,2013-03-08 01:07:00,
2013-03-07 19:12:00,51.6,40.6,30.18,SSW,205,0.0,0.0,66,0.00,,---,0.00,VWS V14.01,2013-03-08 01:12:00,
2013-03-07 19:15:00,47.4,39.5,30.19,SSW,205,0.0,0.0,74,0.00,,---,0.00,VWS V14.01,2013-03-08 01:15:00,
2013-03-07 19:17:00,51.1,40.5,30.18,SSW,205,0.0,0.0,67,0.00,,---,0.00,VWS V14.01,2013-03-08 01:17:00,
2013-03-07 19:22:00,50.7,40.5,30.18,SSW,205,0.0,0.0,68,0.00,,---,0.00,VWS V14.01,2013-03-08 01:22:00,
2013-03-07 19:27:00,50.1,39.6,30.18,SSW,205,0.0,0.0,67,0.00,,---,0.00,VWS V14.01,2013-03-08 01:27:00,
2013-03-07 19:30:00,46.7,39.9,30.19,SSW,205,0.0,0.0,77,0.00,,---,0.00,VWS V14.01,2013-03-08 01:30:00,
2013-03-07 19:32:00,49.8,39.7,30.18,SSW,205,0.0,0.0,68,0.00,,---,0.00,VWS V14.01,2013-03-08 01:32:00,
2013-03-07 19:37:00,49.5,39.8,30.18,SSW,205,0.0,0.0,69,0.00,,---,0.00,VWS V14.01,2013-03-08 01:37:00,
2013-03-07 19:42:00,49.2,39.1,30.18,SSW,205,0.0,0.0,68,0.00,,---,0.00,VWS V14.01,2013-03-08 01:42:00,
2013-03-07 19:45:00,46.1,40.3,30.19,SSW,205,0.0,0.0,80,0.00,,---,0.00,VWS V14.01,2013-03-08 01:45:00,
2013-03-07 19:47:00,48.9,39.6,30.18,SSW,205,0.0,0.0,70,0.00,,---,0.00,VWS V14.01,2013-03-08 01:47:00,
2013-03-07 19:52:00,48.8,40.5,30.18,SSW,205,0.0,0.0,73,0.00,,---,0.00,VWS V14.01,2013-03-08 01:52:00,
2013-03-07 19:57:00,48.6,40.7,30.18,SSW,205,0.0,0.0,74,0.00,,---,0.00,VWS V14.01,2013-03-08 01:57:00,
2013-03-07 20:00:00,45.2,39.7,30.19,SSW,205,0.0,0.0,81,0.00,,---,0.00,VWS V14.01,2013-03-08 02:00:00,
2013-03-07 20:02:00,48.0,39.8,30.19,SSW,205,0.0,0.0,73,0.00,,---,0.00,VWS V14.01,2013-03-08 02:02:00,
2013-03-07 20:08:00,47.7,39.5,30.19,SSW,205,0.0,0.0,73,0.00,,---,0.00,VWS V14.01,2013-03-08 02:08:00,
2013-03-07 20:13:00,47.4,39.5,30.19,SSW,205,0.0,0.0,74,0.00,,---,0.00,VWS V14.01,2013-03-08 02:13:00,
2013-03-07 20:15:00,44.6,39.8,30.19,SSW,205,0.0,0.0,83,0.00,,---,0.00,VWS V14.01,2013-03-08 02:15:00,
2013-03-07 20:18:00,47.1,39.2,30.19,SSW,205,0.0,0.0,74,0.00,,---,0.00,VWS V14.01,2013-03-08 02:18:00,
2013-03-07 20:23:00,47.0,39.8,30.19,SSW,205,0.0,0.0,76,0.00,,---,0.00,VWS V14.01,2013-03-08 02:23:00,
2013-03-07 20:28:00,46.8,40.0,30.19,SSW,205,0.0,0.0,77,0.00,,---,0.00,VWS V14.01,2013-03-08 02:28:00,
2013-03-07 20:30:00,44.2,39.7,30.19,SSW,205,0.0,0.0,84,0.00,,---,0.00,VWS V14.01,2013-03-08 02:30:00,
2013-03-07 20:33:00,46.5,40.0,30.19,SSW,205,0.0,0.0,78,0.00,,---,0.00,VWS V14.01,2013-03-08 02:33:00,
2013-03-07 20:39:00,46.2,39.7,30.19,SSW,205,0.0,0.0,78,0.00,,---,0.00,VWS V14.01,2013-03-08 02:39:00,
2013-03-07 20:44:00,46.1,40.3,30.19,SSW,205,0.0,0.0,80,0.00,,---,0.00,VWS V14.01,2013-03-08 02:44:00,
2013-03-07 20:45:00,43.5,39.3,30.20,SSW,205,0.0,0.0,85,0.00,,---,0.00,VWS V14.01,2013-03-08 02:45:00,
2013-03-07 20:49:00,45.8,40.3,30.19,SSW,205,0.0,0.0,81,0.00,,---,0.00,VWS V14.01,2013-03-08 02:49:00,
2013-03-07 20:54:00,45.5,40.0,30.19,SSW,205,0.0,0.0,81,0.00,,---,0.00,VWS V14.01,2013-03-08 02:54:00,
2013-03-07 20:59:00,45.2,39.7,30.19,SSW,205,0.0,0.0,81,0.00,,---,0.00,VWS V14.01,2013-03-08 02:59:00,
2013-03-07 21:00:00,43.2,39.3,30.20,SSW,205,0.0,0.0,86,0.00,,---,0.00,VWS V14.01,2013-03-08 03:00:00,
2013-03-07 21:04:00,45.1,39.6,30.19,SSW,205,0.0,0.0,81,0.00,,---,0.00,VWS V14.01,2013-03-08 03:04:00,
2013-03-07 21:09:00,44.8,39.7,30.19,SSW,205,0.0,0.0,82,0.00,,---,0.00,VWS V14.01,2013-03-08 03:09:00,
2013-03-07 21:14:00,44.6,39.8,30.19,SSW,205,0.0,0.0,83,0.00,,---,0.00,VWS V14.01,2013-03-08 03:14:00,
2013-03-07 21:15:00,42.9,39.3,30.20,SSW,205,0.0,0.0,87,0.00,,---,0.00,VWS V14.01,2013-03-08 03:15:00,
2013-03-07 21:19:00,44.5,39.7,30.19,SSW,205,0.0,0.0,83,0.00,,---,0.00,VWS V14.01,2013-03-08 03:19:00,
2013-03-07 21:24:00,44.3,39.8,30.19,SSW,205,0.0,0.0,84,0.00,,---,0.00,VWS V14.01,2013-03-08 03:24:00,
2013-03-07 21:29:00,44.2,39.7,30.19,SSW,205,0.0,0.0,84,0.00,,---,0.00,VWS V14.01,2013-03-08 03:29:00,
2013-03-07 21:30:00,42.5,38.9,30.19,SSW,205,0.0,0.0,87,0.00,,---,0.00,VWS V14.01,2013-03-08 03:30:00,
2013-03-07 21:34:00,43.9,39.7,30.19,SSW,205,0.0,0.0,85,0.00,,---,0.00,VWS V14.01,2013-03-08 03:34:00,
2013-03-07 21:40:00,43.8,39.6,30.19,SSW,205,0.0,0.0,85,0.00,,---,0.00,VWS V14.01,2013-03-08 03:40:00,
2013-03-07 21:45:00,43.5,39.6,30.20,SSW,205,0.0,0.0,86,0.00,,---,0.00,VWS V14.01,2013-03-08 03:45:00,
2013-03-07 21:50:00,43.3,39.4,30.20,SSW,205,0.0,0.0,86,0.00,,---,0.00,VWS V14.01,2013-03-08 03:50:00,
2013-03-07 21:55:00,43.3,39.4,30.20,SSW,205,0.0,0.0,86,0.00,,---,0.00,VWS V14.01,2013-03-08 03:55:00,
2013-03-07 22:00:00,43.2,39.3,30.20,SSW,205,0.0,0.0,86,0.00,,---,0.00,VWS V14.01,2013-03-08 04:00:00,
2013-03-07 22:05:00,43.1,39.2,30.20,SSW,205,0.0,0.0,86,0.00,,---,0.00,VWS V14.01,2013-03-08 04:05:00,
2013-03-07 22:10:00,42.9,39.0,30.20,SSW,205,0.0,0.0,86,0.00,,---,0.00,VWS V14.01,2013-03-08 04:10:00,
2013-03-07 22:15:00,42.9,39.3,30.20,SSW,205,0.0,0.0,87,0.00,,---,0.00,VWS V14.01,2013-03-08 04:15:00,
2013-03-07 22:20:00,42.8,39.2,30.20,SSW,205,0.0,0.0,87,0.00,,---,0.00,VWS V14.01,2013-03-08 04:20:00,
2013-03-07 22:25:00,42.8,39.2,30.20,SSW,205,0.0,0.0,87,0.00,,---,0.00,VWS V14.01,2013-03-08 04:25:00,
2013-03-07 22:30:00,42.5,38.9,30.19,SSW,205,0.0,0.0,87,0.00,,---,0.00,VWS V14.01,2013-03-08 04:30:00,
2013-03-07 22:35:00,42.3,39.0,30.19,SSW,205,0.0,0.0,88,0.00,,---,0.00,VWS V14.01,2013-03-08 04:35:00,
2013-03-07 22:40:00,42.1,38.8,30.19,SSW,205,0.0,0.0,88,0.00,,---,0.00,VWS V14.01,2013-03-08 04:40:00,
2013-03-07 22:45:00,41.9,38.6,30.19,SSW,205,0.0,0.0,88,0.00,,---,0.00,VWS V14.01,2013-03-08 04:45:00,
2013-03-07 22:50:00,41.8,38.5,30.19,SSW,205,0.0,0.0,88,0.00,,---,0.00,VWS V14.01,2013-03-08 04:50:00,
2013-03-07 22:55:00,41.6,38.6,30.19,SSW,205,0.0,0.0,89,0.00,,---,0.00,VWS V14.01,2013-03-08 04:55:00,
2013-03-07 23:00:00,41.3,38.3,30.19,SSW,205,0.0,0.0,89,0.00,,---,0.00,VWS V14.01,2013-03-08 05:00:00,
2013-03-07 23:01:00,41.3,38.3,30.19,SSW,205,0.0,0.0,89,0.00,,---,0.00,VWS V14.01,2013-03-08 05:01:00,
2013-03-07 23:03:00,41.3,38.3,30.19,SSW,205,0.0,0.0,89,0.00,,---,0.00,VWS V14.01,2013-03-08 05:03:00,
2013-03-07 23:09:00,41.2,38.2,30.19,SSW,205,0.0,0.0,89,0.00,,---,0.00,VWS V14.01,2013-03-08 05:09:00,
2013-03-07 23:14:00,41.2,38.2,30.19,SSW,205,0.0,0.0,89,0.00,,---,0.00,VWS V14.01,2013-03-08 05:14:00,
2013-03-07 23:15:00,40.2,37.5,30.19,SSW,205,0.0,0.0,90,0.00,,---,0.00,VWS V14.01,2013-03-08 05:15:00,
2013-03-07 23:19:00,41.1,38.1,30.19,SSW,205,0.0,0.0,89,0.00,,---,0.00,VWS V14.01,2013-03-08 05:19:00,
2013-03-07 23:24:00,41.1,38.1,30.19,SSW,205,0.0,0.0,89,0.00,,---,0.00,VWS V14.01,2013-03-08 05:24:00,
2013-03-07 23:29:00,40.9,37.9,30.19,SSW,205,0.0,0.0,89,0.00,,---,0.00,VWS V14.01,2013-03-08 05:29:00,
2013-03-07 23:30:00,39.8,37.1,30.19,SSW,205,0.0,0.0,90,0.00,,---,0.00,VWS V14.01,2013-03-08 05:30:00,
2013-03-07 23:34:00,40.9,38.2,30.19,SSW,205,0.0,0.0,90,0.00,,---,0.00,VWS V14.01,2013-03-08 05:34:00,
2013-03-07 23:39:00,40.9,38.2,30.19,SSW,205,0.0,0.0,90,0.00,,---,0.00,VWS V14.01,2013-03-08 05:39:00,
2013-03-07 23:44:00,40.8,38.1,30.19,SSW,205,0.0,0.0,90,0.00,,---,0.00,VWS V14.01,2013-03-08 05:44:00,
2013-03-07 23:45:00,39.2,36.8,30.18,SSW,205,0.0,0.0,91,0.00,,---,0.00,VWS V14.01,2013-03-08 05:45:00,
2013-03-07 23:49:00,40.6,37.9,30.19,SSW,205,0.0,0.0,90,0.00,,---,0.00,VWS V14.01,2013-03-08 05:49:00,
2013-03-07 23:54:00,40.6,37.9,30.19,SSW,205,0.0,0.0,90,0.00,,---,0.00,VWS V14.01,2013-03-08 05:54:00,
2013-03-07 23:59:00,40.6,37.9,30.19,SSW,205,0.0,0.0,90,0.00,,---,0.00,VWS V14.01,2013-03-08 05:59:00,